Terminal Aerodrome Forecast
Issued by NWS

Home | Current Version | Previous Version | Text Only | Print | Product List | Glossary On
Versions: 1 2 3 4 5 6 7 8 9 10 11 12 13 14 15 16 17 18 19 20
000
FTUS41 KBGM 101700
TAFITH
TAF
KITH 101732Z 1018/1118 33005KT P6SM SCT035
     FM110000 VRB02KT P6SM SKC
      TEMPO 1108/1112 3SM BR
     FM111500 VRB03KT P6SM SCT040=

USA.gov is the U.S. government's official web portal to all federal, state and local government web resources and services.